createdAt,value
2023-04-18T05:03:17.895Z,25.00
2023-04-18T05:04:19.063Z,25.00
2023-04-18T05:05:18.748Z,25.00
2023-04-18T05:06:17.831Z,25.00
2023-04-18T05:07:18.830Z,25.00
2023-04-18T05:08:18.820Z,25.00
2023-04-18T05:09:17.893Z,0.00
2023-04-18T05:10:18.943Z,0.00
2023-04-18T05:11:18.992Z,0.00
2023-04-18T05:12:18.004Z,0.00
2023-04-18T05:13:19.065Z,0.00
2023-04-18T05:14:18.070Z,0.00
2023-04-18T05:15:19.107Z,0.00
2023-04-18T05:16:18.157Z,0.00
2023-04-18T05:17:18.184Z,0.00
2023-04-18T05:18:19.212Z,0.00
2023-04-18T05:19:18.219Z,0.00
2023-04-18T05:20:18.237Z,0.00
2023-04-18T05:21:18.311Z,0.00
2023-04-18T05:22:18.353Z,0.00
2023-04-18T05:23:19.402Z,0.00
2023-04-18T05:24:19.472Z,0.00
2023-04-18T05:25:19.476Z,24.88
2023-04-18T05:26:18.477Z,28.20
2023-04-18T05:27:19.543Z,43.07
2023-04-18T05:28:18.657Z,36.17
2023-04-18T05:29:18.605Z,26.59
2023-04-18T05:30:18.648Z,25.00
2023-04-18T05:31:20.814Z,27.16
2023-04-18T05:32:18.811Z,26.65
2023-04-18T05:33:19.781Z,28.30
2023-04-18T05:34:18.857Z,43.25
2023-04-18T05:35:19.179Z,46.14
2023-04-18T05:36:19.861Z,54.10
2023-04-18T05:37:18.878Z,41.75
2023-04-18T05:38:19.951Z,44.70
2023-04-18T05:39:18.975Z,48.17
2023-04-18T05:40:19.083Z,53.39
2023-04-18T05:41:20.101Z,56.30
2023-04-18T05:42:20.117Z,49.55
2023-04-18T05:43:19.178Z,57.21
2023-04-18T05:44:19.570Z,41.90
2023-04-18T05:45:20.650Z,58.80
2023-04-18T05:46:20.298Z,54.45
2023-04-18T05:47:19.265Z,62.77
2023-04-18T05:48:20.318Z,59.86
2023-04-18T05:49:20.265Z,67.99
2023-04-18T05:50:20.441Z,62.97
2023-04-18T05:51:20.287Z,73.42
2023-04-18T05:52:20.305Z,80.41
2023-04-18T05:53:20.291Z,82.42
2023-04-18T05:54:20.319Z,79.38
2023-04-18T05:55:20.322Z,80.51
2023-04-18T05:56:20.459Z,77.18
2023-04-18T05:57:20.339Z,78.99
2023-04-18T05:58:20.334Z,82.10
2023-04-18T05:59:19.382Z,86.19
2023-04-18T06:00:20.341Z,73.96
2023-04-18T06:01:21.187Z,77.59
2023-04-18T06:02:21.341Z,74.11
2023-04-18T06:03:20.607Z,23.24
2023-04-18T06:04:19.800Z,25.00
2023-04-18T06:05:20.534Z,25.00
2023-04-18T06:06:19.638Z,24.31
2023-04-18T06:07:20.471Z,30.78
2023-04-18T06:08:20.526Z,25.09
2023-04-18T06:09:20.544Z,42.06
2023-04-18T06:10:19.522Z,61.38
2023-04-18T06:11:20.576Z,77.67
2023-04-18T06:12:20.601Z,70.31
2023-04-18T06:13:20.640Z,67.80
2023-04-18T06:14:21.174Z,77.35
2023-04-18T06:15:20.687Z,84.17
2023-04-18T06:16:19.772Z,88.32
2023-04-18T06:17:20.792Z,87.69
2023-04-18T06:18:20.800Z,91.00
2023-04-18T06:19:19.837Z,82.17
2023-04-18T06:20:20.792Z,87.32
2023-04-18T06:21:20.795Z,92.24
2023-04-18T06:22:19.811Z,89.19
2023-04-18T06:23:19.805Z,94.77
2023-04-18T06:24:20.806Z,88.92
2023-04-18T06:25:21.235Z,91.74
2023-04-18T06:26:20.820Z,106.81
2023-04-18T06:27:31.098Z,102.12
2023-04-18T06:28:20.921Z,102.54
2023-04-18T06:29:21.136Z,102.43
2023-04-18T06:30:19.850Z,103.69
2023-04-18T06:31:19.905Z,106.84
2023-04-18T06:32:21.950Z,107.88
2023-04-18T06:33:20.834Z,114.59
2023-04-18T06:34:20.861Z,112.06
2023-04-18T06:35:19.828Z,109.38
2023-04-18T06:36:19.791Z,114.95
2023-04-18T06:37:20.798Z,115.18
2023-04-18T06:38:20.940Z,116.01
2023-04-18T06:39:19.893Z,105.49
2023-04-18T06:40:21.193Z,121.45
2023-04-18T06:41:20.027Z,109.00
2023-04-18T06:42:22.337Z,113.96
2023-04-18T06:43:20.501Z,117.13
2023-04-18T06:44:21.469Z,112.18
2023-04-18T06:45:20.456Z,101.09
2023-04-18T06:46:21.579Z,101.89
2023-04-18T06:47:21.598Z,105.33
2023-04-18T06:48:20.657Z,107.63
2023-04-18T06:49:26.251Z,113.15
2023-04-18T06:50:21.696Z,112.24
2023-04-18T06:51:20.678Z,117.24
2023-04-18T06:52:21.699Z,117.47
2023-04-18T06:53:21.718Z,113.64
2023-04-18T06:54:20.809Z,118.66
2023-04-18T06:55:21.632Z,117.83
2023-04-18T06:56:20.642Z,114.64
2023-04-18T06:57:21.793Z,103.00
2023-04-18T06:58:21.217Z,105.71
2023-04-18T06:59:21.700Z,93.38
2023-04-18T07:00:20.890Z,101.19
2023-04-18T07:01:21.618Z,85.15
2023-04-18T07:02:21.680Z,96.98
2023-04-18T07:03:21.658Z,96.05
2023-04-18T07:04:21.761Z,101.49
2023-04-18T07:05:21.648Z,97.47
2023-04-18T07:06:21.603Z,96.13
2023-04-18T07:07:20.566Z,95.86
2023-04-18T07:08:21.534Z,92.20
2023-04-18T07:09:20.565Z,90.96
2023-04-18T07:10:21.621Z,99.66
2023-04-18T07:11:21.540Z,100.10
2023-04-18T07:12:21.547Z,103.27
2023-04-18T07:13:20.538Z,104.44
2023-04-18T07:14:20.526Z,105.30
2023-04-18T07:15:20.642Z,101.81
2023-04-18T07:16:21.541Z,103.98
2023-04-18T07:17:21.521Z,111.01
2023-04-18T07:18:34.349Z,124.06
2023-04-18T07:19:21.998Z,124.11
2023-04-18T07:20:20.861Z,114.38
2023-04-18T07:21:20.525Z,110.35
2023-04-18T07:22:21.553Z,95.80
2023-04-18T07:23:21.434Z,95.65
2023-04-18T07:24:21.410Z,102.46
2023-04-18T07:25:21.744Z,107.64
2023-04-18T07:26:21.550Z,106.41
2023-04-18T07:27:21.417Z,107.24
2023-04-18T07:28:21.439Z,100.87
2023-04-18T07:29:20.479Z,93.90
2023-04-18T07:30:21.442Z,105.39
2023-04-18T07:31:21.461Z,96.72
2023-04-18T07:32:20.388Z,104.90
2023-04-18T07:33:21.402Z,99.31
2023-04-18T07:34:21.389Z,104.40
2023-04-18T07:35:21.378Z,105.56
2023-04-18T07:36:22.220Z,99.09
2023-04-18T07:37:21.336Z,108.89
2023-04-18T07:38:20.312Z,108.38
2023-04-18T07:39:21.324Z,113.74
2023-04-18T07:40:21.398Z,107.81
2023-04-18T07:41:21.407Z,123.36
2023-04-18T07:42:21.440Z,116.01
2023-04-18T07:43:20.971Z,114.60
2023-04-18T07:44:20.448Z,118.21
2023-04-18T07:45:20.471Z,115.23
2023-04-18T07:46:20.763Z,111.05
2023-04-18T07:47:22.373Z,110.79
2023-04-18T07:48:21.601Z,117.43
2023-04-18T07:49:21.702Z,138.16
2023-04-18T07:50:20.669Z,127.58
2023-04-18T07:51:21.719Z,124.65
2023-04-18T07:52:20.696Z,123.45
2023-04-18T07:53:21.691Z,123.83
2023-04-18T07:54:21.720Z,125.27
2023-04-18T07:55:21.725Z,119.82
2023-04-18T07:56:21.736Z,119.39
2023-04-18T07:57:21.782Z,127.37
2023-04-18T07:58:21.897Z,123.33
2023-04-18T07:59:21.703Z,125.10
2023-04-18T08:00:21.695Z,125.24
2023-04-18T08:01:21.689Z,125.24
2023-04-18T08:02:20.838Z,125.90
2023-04-18T08:03:21.111Z,130.22
2023-04-18T08:04:21.017Z,128.92
2023-04-18T08:05:22.135Z,127.61
2023-04-18T08:06:20.796Z,131.67
2023-04-18T08:07:21.825Z,128.23
2023-04-18T08:08:21.831Z,130.32
2023-04-18T08:09:20.912Z,128.53
2023-04-18T08:10:23.722Z,130.81
2023-04-18T08:11:21.944Z,135.03
2023-04-18T08:12:20.921Z,132.39
2023-04-18T08:13:21.936Z,136.12
2023-04-18T08:14:22.009Z,133.78
2023-04-18T08:15:21.898Z,138.48
2023-04-18T08:16:21.940Z,138.36
2023-04-18T08:17:21.883Z,142.23
2023-04-18T08:18:21.922Z,138.43
2023-04-18T08:19:21.901Z,138.42
2023-04-18T08:20:21.879Z,142.57
2023-04-18T08:21:21.837Z,149.21
2023-04-18T08:22:21.828Z,139.88
2023-04-18T08:23:20.808Z,142.63
2023-04-18T08:24:20.815Z,140.09
2023-04-18T08:25:20.809Z,138.64
2023-04-18T08:26:21.820Z,136.51
2023-04-18T08:27:21.790Z,140.85
2023-04-18T08:28:20.808Z,134.67
2023-04-18T08:29:21.784Z,133.19
2023-04-18T08:30:21.798Z,129.83
2023-04-18T08:31:21.881Z,131.66
2023-04-18T08:32:21.800Z,133.27
2023-04-18T08:33:21.752Z,124.20
2023-04-18T08:34:21.804Z,133.37
2023-04-18T08:35:20.917Z,120.99
2023-04-18T08:36:21.784Z,134.87
2023-04-18T08:37:21.726Z,123.07
2023-04-18T08:38:21.811Z,130.33
2023-04-18T08:39:23.137Z,127.94
2023-04-18T08:40:21.888Z,123.54
2023-04-18T08:41:22.278Z,125.17
2023-04-18T08:42:21.820Z,125.94
2023-04-18T08:43:21.837Z,111.11
2023-04-18T08:44:21.020Z,118.19
2023-04-18T08:45:21.825Z,114.25
2023-04-18T08:46:21.858Z,88.34
2023-04-18T08:47:21.797Z,76.27
2023-04-18T08:48:21.858Z,78.20
2023-04-18T08:49:21.754Z,53.57
2023-04-18T08:50:21.792Z,59.35
2023-04-18T08:51:20.763Z,56.23
2023-04-18T08:52:20.860Z,53.86
2023-04-18T08:53:20.721Z,58.20
2023-04-18T08:54:21.736Z,83.48
2023-04-18T08:55:20.704Z,79.14
2023-04-18T08:56:21.751Z,76.32
2023-04-18T08:57:20.729Z,74.07
2023-04-18T08:58:20.755Z,89.70
2023-04-18T08:59:20.702Z,100.47
2023-04-18T09:00:21.702Z,93.39
2023-04-18T09:01:21.737Z,93.47
2023-04-18T09:02:21.069Z,100.29
2023-04-18T09:03:20.714Z,96.04
2023-04-18T09:04:20.707Z,105.19
2023-04-18T09:05:20.640Z,105.49
2023-04-18T09:06:20.664Z,106.01
2023-04-18T09:07:21.604Z,101.82
2023-04-18T09:08:21.739Z,106.36
2023-04-18T09:09:20.611Z,116.96
2023-04-18T09:10:21.657Z,119.09
2023-04-18T09:11:20.591Z,116.63
2023-04-18T09:12:21.742Z,121.87
2023-04-18T09:13:20.936Z,124.27
2023-04-18T09:14:21.727Z,120.02
2023-04-18T09:15:20.758Z,132.22
2023-04-18T09:16:21.829Z,126.70
2023-04-18T09:17:20.806Z,125.00
2023-04-18T09:18:22.116Z,113.60
2023-04-18T09:19:21.931Z,117.19
2023-04-18T09:20:21.938Z,119.89
2023-04-18T09:21:21.009Z,110.09
2023-04-18T09:22:21.049Z,110.93
2023-04-18T09:23:22.271Z,106.07
2023-04-18T09:24:21.333Z,118.09
2023-04-18T09:25:22.230Z,119.26
2023-04-18T09:26:22.762Z,107.46
2023-04-18T09:27:22.362Z,111.85
2023-04-18T09:28:22.421Z,101.55
2023-04-18T09:29:22.670Z,105.93
2023-04-18T09:30:22.494Z,92.67
2023-04-18T09:31:21.670Z,106.98
2023-04-18T09:32:22.688Z,107.25
2023-04-18T09:33:21.679Z,94.58
2023-04-18T09:34:22.820Z,98.98
2023-04-18T09:35:22.726Z,94.91
2023-04-18T09:36:22.849Z,93.50
2023-04-18T09:37:22.718Z,87.11
2023-04-18T09:38:22.926Z,100.30
2023-04-18T09:39:22.704Z,105.60
2023-04-18T09:40:21.760Z,104.34
2023-04-18T09:41:21.788Z,112.33
2023-04-18T09:42:22.693Z,108.77
2023-04-18T09:43:21.785Z,113.15
2023-04-18T09:44:21.796Z,101.96
2023-04-18T09:45:21.889Z,96.61
2023-04-18T09:46:22.033Z,111.05
2023-04-18T09:47:23.311Z,98.35
2023-04-18T09:48:22.020Z,84.51
2023-04-18T09:49:23.088Z,111.97
2023-04-18T09:50:22.088Z,110.41
2023-04-18T09:51:22.991Z,111.87
2023-04-18T09:52:22.249Z,109.26
2023-04-18T09:53:22.042Z,111.87
2023-04-18T09:54:22.025Z,106.76
2023-04-18T09:55:22.059Z,110.56
2023-04-18T09:56:23.023Z,112.14
2023-04-18T09:57:23.067Z,117.54
2023-04-18T09:58:23.066Z,112.16
2023-04-18T09:59:22.084Z,106.56
2023-04-18T10:00:22.096Z,103.96
2023-04-18T10:01:23.201Z,104.38
2023-04-18T10:02:23.205Z,101.39
2023-04-18T10:03:22.234Z,105.09
2023-04-18T10:04:22.300Z,109.84
2023-04-18T10:05:23.366Z,106.87
2023-04-18T10:06:23.238Z,100.30
2023-04-18T10:07:23.169Z,99.41
2023-04-18T10:08:22.187Z,101.05
2023-04-18T10:09:23.175Z,97.39
2023-04-18T10:10:22.201Z,101.38
2023-04-18T10:11:23.220Z,100.86
2023-04-18T10:12:22.262Z,100.33
2023-04-18T10:13:23.279Z,99.88
2023-04-18T10:14:23.296Z,103.22
2023-04-18T10:15:23.324Z,101.51
2023-04-18T10:16:23.370Z,103.03
2023-04-18T10:17:22.498Z,98.60
2023-04-18T10:18:23.388Z,97.89
2023-04-18T10:19:22.425Z,100.32
2023-04-18T10:20:23.498Z,98.41
2023-04-18T10:21:23.455Z,101.08
2023-04-18T10:22:23.666Z,105.39
2023-04-18T10:23:23.554Z,106.16
2023-04-18T10:24:23.574Z,104.42
2023-04-18T10:25:22.570Z,100.91
2023-04-18T10:26:22.623Z,105.36
2023-04-18T10:27:23.654Z,104.66
2023-04-18T10:28:22.657Z,102.03
2023-04-18T10:29:23.686Z,101.41
2023-04-18T10:30:23.734Z,100.62
2023-04-18T10:31:23.887Z,102.20
2023-04-18T10:32:23.025Z,104.16
2023-04-18T10:33:30.502Z,100.53
2023-04-18T10:34:23.784Z,100.70
2023-04-18T10:35:23.810Z,100.83
2023-04-18T10:36:22.778Z,100.85
2023-04-18T10:37:23.779Z,101.20
2023-04-18T10:38:22.907Z,104.52
2023-04-18T10:39:23.737Z,102.22
2023-04-18T10:40:23.742Z,103.44
2023-04-18T10:41:23.769Z,103.10
2023-04-18T10:42:22.833Z,105.74
2023-04-18T10:43:22.729Z,99.82
2023-04-18T10:44:24.079Z,99.96
2023-04-18T10:45:22.726Z,100.88
2023-04-18T10:46:31.724Z,102.81
2023-04-18T10:47:23.940Z,103.09
2023-04-18T10:48:23.870Z,103.64
2023-04-18T10:49:26.287Z,103.88
2023-04-18T10:50:22.696Z,103.12
2023-04-18T10:51:23.684Z,103.37
2023-04-18T10:52:23.689Z,103.86
2023-04-18T10:53:23.676Z,102.42
2023-04-18T10:54:23.728Z,102.76
2023-04-18T10:55:23.619Z,103.33
2023-04-18T10:56:23.625Z,103.75
2023-04-18T10:57:23.638Z,100.88
2023-04-18T10:58:23.616Z,101.94
2023-04-18T10:59:23.605Z,100.92
2023-04-18T11:00:23.621Z,102.20
2023-04-18T11:01:23.789Z,101.44
2023-04-18T11:02:23.691Z,101.89
2023-04-18T11:03:22.660Z,105.72
2023-04-18T11:04:22.592Z,101.57
2023-04-18T11:05:22.652Z,103.49
2023-04-18T11:06:22.569Z,103.59
2023-04-18T11:07:23.549Z,103.74
2023-04-18T11:08:23.538Z,101.30
2023-04-18T11:09:23.548Z,102.30
2023-04-18T11:10:23.637Z,99.70
2023-04-18T11:11:22.503Z,103.20
2023-04-18T11:12:23.532Z,100.17
2023-04-18T11:13:22.520Z,101.38
2023-04-18T11:14:22.488Z,102.66
2023-04-18T11:15:23.553Z,104.05
2023-04-18T11:16:23.583Z,102.94
2023-04-18T11:17:22.519Z,103.21
2023-04-18T11:18:23.648Z,104.35
2023-04-18T11:19:23.823Z,100.15
2023-04-18T11:20:23.614Z,100.69
2023-04-18T11:21:22.680Z,104.22
2023-04-18T11:22:23.730Z,106.00
2023-04-18T11:23:22.748Z,100.61
2023-04-18T11:24:23.796Z,104.03
2023-04-18T11:25:23.873Z,106.20
2023-04-18T11:26:22.961Z,104.31
2023-04-18T11:27:23.962Z,105.61
2023-04-18T11:28:22.955Z,102.88
2023-04-18T11:29:22.985Z,102.65
2023-04-18T11:30:24.014Z,106.26
2023-04-18T11:31:23.065Z,104.19
2023-04-18T11:32:24.257Z,102.46
2023-04-18T11:33:23.138Z,104.91
2023-04-18T11:34:23.138Z,104.56
2023-04-18T11:35:23.209Z,103.81
2023-04-18T11:36:24.182Z,106.30
2023-04-18T11:37:24.314Z,107.16
2023-04-18T11:38:24.803Z,106.20
2023-04-18T11:39:24.233Z,110.26
2023-04-18T11:40:23.246Z,109.20
2023-04-18T11:41:23.264Z,110.88
2023-04-18T11:42:23.320Z,106.95
2023-04-18T11:43:23.292Z,110.05
2023-04-18T11:44:23.294Z,106.45
2023-04-18T11:45:24.358Z,115.97
2023-04-18T11:46:23.363Z,108.51
2023-04-18T11:47:23.370Z,107.86
2023-04-18T11:48:23.352Z,117.97
2023-04-18T11:49:24.363Z,123.99
2023-04-18T11:50:23.457Z,113.32
2023-04-18T11:51:23.362Z,116.16
2023-04-18T11:52:23.365Z,122.13
2023-04-18T11:53:23.366Z,122.42
2023-04-18T11:54:24.423Z,126.38
2023-04-18T11:55:24.394Z,122.95
2023-04-18T11:56:23.371Z,117.78
2023-04-18T11:57:24.392Z,123.30
2023-04-18T11:58:24.437Z,121.43
2023-04-18T11:59:23.462Z,124.26
2023-04-18T12:00:23.423Z,122.97
2023-04-18T12:01:24.411Z,126.75
2023-04-18T12:02:23.561Z,123.74
2023-04-18T12:03:24.721Z,197.66
2023-04-18T12:04:24.623Z,168.95
2023-04-18T12:05:23.675Z,167.06
2023-04-18T12:06:23.472Z,167.39
2023-04-18T12:07:24.451Z,171.08
2023-04-18T12:08:24.476Z,174.66
2023-04-18T12:09:24.496Z,161.50
2023-04-18T12:10:24.489Z,162.07
2023-04-18T12:11:24.519Z,163.82
2023-04-18T12:12:24.505Z,162.11
2023-04-18T12:13:24.508Z,174.34
2023-04-18T12:14:23.573Z,170.44
2023-04-18T12:15:24.518Z,166.64
2023-04-18T12:16:24.566Z,165.97
2023-04-18T12:17:24.559Z,173.05
2023-04-18T12:18:24.556Z,171.22
2023-04-18T12:19:24.521Z,169.61
2023-04-18T12:20:23.509Z,178.78
2023-04-18T12:21:24.510Z,176.46
2023-04-18T12:22:24.527Z,168.50
2023-04-18T12:23:24.516Z,168.11
2023-04-18T12:24:24.496Z,171.83
2023-04-18T12:25:26.237Z,169.60
2023-04-18T12:26:24.528Z,164.62
2023-04-18T12:27:24.522Z,167.90
2023-04-18T12:28:24.477Z,166.24
2023-04-18T12:29:23.470Z,163.37
2023-04-18T12:30:23.494Z,169.47
2023-04-18T12:31:24.492Z,165.31
2023-04-18T12:32:24.455Z,162.40
2023-04-18T12:33:24.461Z,164.76
2023-04-18T12:34:24.442Z,169.71
2023-04-18T12:35:23.407Z,167.79
2023-04-18T12:36:24.417Z,163.23
2023-04-18T12:37:24.415Z,164.49
2023-04-18T12:38:24.431Z,161.97
2023-04-18T12:39:24.405Z,158.24
2023-04-18T12:40:24.494Z,157.24
2023-04-18T12:41:23.418Z,154.39
2023-04-18T12:42:24.370Z,165.86
2023-04-18T12:43:24.354Z,168.70
2023-04-18T12:44:23.365Z,161.66
2023-04-18T12:45:23.371Z,160.27
2023-04-18T12:46:24.384Z,161.82
2023-04-18T12:47:24.426Z,155.86
2023-04-18T12:48:24.347Z,156.79
2023-04-18T12:49:24.327Z,151.59
2023-04-18T12:50:24.370Z,151.98
2023-04-18T12:51:24.309Z,155.02
2023-04-18T12:52:23.302Z,157.55
2023-04-18T12:53:24.282Z,156.10
2023-04-18T12:54:23.294Z,154.90
2023-04-18T12:55:23.283Z,158.66
2023-04-18T12:56:24.256Z,154.81
2023-04-18T12:57:23.260Z,157.50
2023-04-18T12:58:24.255Z,160.15
2023-04-18T12:59:23.244Z,149.62
2023-04-18T13:00:23.228Z,155.59
2023-04-18T13:01:23.371Z,147.42
2023-04-18T13:02:23.386Z,154.99
2023-04-18T13:03:24.426Z,149.93
2023-04-18T13:04:23.339Z,154.29
2023-04-18T13:05:23.190Z,154.02
2023-04-18T13:06:23.207Z,153.04
2023-04-18T13:07:24.201Z,154.01
2023-04-18T13:08:23.173Z,156.27
2023-04-18T13:09:24.173Z,156.19
2023-04-18T13:10:24.158Z,157.24
2023-04-18T13:11:23.155Z,151.35
2023-04-18T13:12:23.146Z,152.15
2023-04-18T13:13:24.141Z,151.26
2023-04-18T13:14:23.166Z,149.58
2023-04-18T13:15:24.114Z,150.67
2023-04-18T13:16:23.139Z,150.91
2023-04-18T13:17:24.158Z,142.25
2023-04-18T13:18:24.135Z,148.45
2023-04-18T13:19:24.106Z,152.77
2023-04-18T13:20:24.104Z,150.44
2023-04-18T13:21:24.093Z,149.08
2023-04-18T13:22:24.099Z,145.41
2023-04-18T13:23:24.081Z,152.16
2023-04-18T13:24:23.059Z,141.89
2023-04-18T13:25:23.097Z,146.95
2023-04-18T13:26:24.052Z,144.17
2023-04-18T13:27:23.040Z,150.76
2023-04-18T13:28:23.040Z,145.11
2023-04-18T13:29:23.025Z,149.53
2023-04-18T13:30:24.022Z,144.00
2023-04-18T13:31:24.064Z,148.81
2023-04-18T13:32:23.047Z,147.90
2023-04-18T13:33:24.002Z,145.05
2023-04-18T13:34:23.009Z,142.63
2023-04-18T13:35:23.989Z,143.49
2023-04-18T13:36:23.971Z,141.03
2023-04-18T13:37:22.956Z,140.68
2023-04-18T13:38:23.975Z,145.76
2023-04-18T13:39:23.951Z,143.87
2023-04-18T13:40:23.950Z,141.94
2023-04-18T13:41:23.928Z,143.01
2023-04-18T13:42:23.932Z,143.64
2023-04-18T13:43:23.920Z,143.64
2023-04-18T13:44:23.911Z,142.62
2023-04-18T13:45:23.900Z,136.96
2023-04-18T13:46:23.940Z,138.55
2023-04-18T13:47:22.902Z,137.94
2023-04-18T13:48:23.872Z,139.19
2023-04-18T13:49:22.871Z,134.03
2023-04-18T13:50:23.898Z,146.49
2023-04-18T13:51:22.847Z,137.14
2023-04-18T13:52:23.865Z,135.77
2023-04-18T13:53:23.851Z,140.74
2023-04-18T13:54:23.835Z,135.30
2023-04-18T13:55:23.822Z,142.28
2023-04-18T13:56:22.850Z,139.94
2023-04-18T13:57:23.826Z,138.41
2023-04-18T13:58:23.906Z,146.54
2023-04-18T13:59:23.965Z,140.98
2023-04-18T14:00:23.045Z,141.19
2023-04-18T14:01:24.136Z,137.09
2023-04-18T14:02:24.399Z,138.41
2023-04-18T14:03:24.438Z,138.93
2023-04-18T14:04:24.407Z,139.82
2023-04-18T14:05:24.371Z,139.30
2023-04-18T14:06:23.400Z,136.31
2023-04-18T14:07:24.413Z,137.71
2023-04-18T14:08:24.481Z,137.20
2023-04-18T14:09:24.611Z,140.39
2023-04-18T14:10:23.570Z,136.69
2023-04-18T14:11:23.650Z,139.42
2023-04-18T14:12:24.636Z,149.06
2023-04-18T14:13:24.716Z,144.18
2023-04-18T14:14:24.742Z,143.14
2023-04-18T14:15:24.845Z,143.75
2023-04-18T14:16:23.979Z,142.14
2023-04-18T14:17:23.950Z,140.60
2023-04-18T14:18:24.948Z,136.57
2023-04-18T14:19:24.988Z,140.29
2023-04-18T14:20:24.017Z,145.80
2023-04-18T14:21:25.068Z,144.50
2023-04-18T14:22:25.129Z,149.16
2023-04-18T14:23:24.157Z,136.51
2023-04-18T14:24:24.173Z,145.91
2023-04-18T14:25:25.198Z,139.14
2023-04-18T14:26:24.223Z,136.80
2023-04-18T14:27:24.251Z,143.11
2023-04-18T14:28:24.303Z,137.51
2023-04-18T14:29:25.304Z,137.28
2023-04-18T14:30:25.319Z,142.03
2023-04-18T14:31:25.358Z,136.62
2023-04-18T14:32:25.372Z,138.51
2023-04-18T14:33:24.341Z,137.44
2023-04-18T14:34:25.384Z,138.24
2023-04-18T14:35:24.395Z,134.45
2023-04-18T14:36:25.370Z,138.10
2023-04-18T14:37:25.378Z,135.46
2023-04-18T14:38:24.394Z,132.46
2023-04-18T14:39:25.352Z,136.95
2023-04-18T14:40:25.399Z,135.09
2023-04-18T14:41:25.340Z,135.46
2023-04-18T14:42:24.320Z,140.82
2023-04-18T14:43:24.332Z,140.15
2023-04-18T14:44:25.336Z,136.36
2023-04-18T14:45:24.324Z,133.28
2023-04-18T14:46:25.423Z,137.05
2023-04-18T14:47:25.457Z,136.10
2023-04-18T14:48:24.432Z,135.20
2023-04-18T14:49:24.308Z,131.97
2023-04-18T14:50:25.307Z,138.46
2023-04-18T14:51:25.304Z,136.83
2023-04-18T14:52:24.319Z,131.22
2023-04-18T14:53:25.320Z,137.15
2023-04-18T14:54:24.342Z,134.61
2023-04-18T14:55:24.332Z,131.47
2023-04-18T14:56:25.327Z,134.38
2023-04-18T14:57:24.401Z,127.75
2023-04-18T14:58:25.349Z,130.28
2023-04-18T14:59:25.353Z,132.22
2023-04-18T15:00:25.371Z,135.22
2023-04-18T15:01:24.472Z,130.71
2023-04-18T15:02:25.538Z,132.04
2023-04-18T15:03:24.477Z,129.74
2023-04-18T15:04:24.482Z,130.08
2023-04-18T15:05:25.402Z,127.50
2023-04-18T15:06:24.424Z,126.84
2023-04-18T15:07:25.438Z,132.54
2023-04-18T15:08:25.444Z,126.07
2023-04-18T15:09:24.482Z,128.09
2023-04-18T15:10:24.511Z,125.74
2023-04-18T15:11:25.515Z,124.45
2023-04-18T15:12:25.547Z,128.68
2023-04-18T15:13:24.556Z,123.90
2023-04-18T15:14:25.569Z,127.34
2023-04-18T15:15:25.593Z,123.80
2023-04-18T15:16:24.675Z,128.34
2023-04-18T15:17:25.675Z,120.89
2023-04-18T15:18:24.676Z,123.12
2023-04-18T15:19:25.685Z,124.82
2023-04-18T15:20:25.714Z,119.57
2023-04-18T15:21:25.785Z,123.54
2023-04-18T15:22:24.768Z,125.78
2023-04-18T15:23:25.816Z,121.55
2023-04-18T15:24:24.824Z,124.24
2023-04-18T15:25:25.870Z,122.33
2023-04-18T15:26:25.927Z,119.23
2023-04-18T15:27:25.926Z,122.40
2023-04-18T15:28:25.973Z,118.75
2023-04-18T15:29:26.001Z,121.62
